createdAt,value
2018-09-23T00:02:43.959Z,49.65
2018-09-23T00:07:47.399Z,49.60
2018-09-23T00:12:50.873Z,50.06
2018-09-23T00:17:54.300Z,50.35
2018-09-23T00:22:57.735Z,50.10
2018-09-23T00:28:01.172Z,50.26
2018-09-23T00:33:04.628Z,50.35
2018-09-23T00:38:08.122Z,50.58
2018-09-23T00:43:11.568Z,50.73
2018-09-23T00:48:15.159Z,50.88
2018-09-23T00:53:18.574Z,51.47
2018-09-23T00:58:22.110Z,51.08
2018-09-23T01:03:25.540Z,51.78
2018-09-23T01:08:28.974Z,51.33
2018-09-23T01:13:32.434Z,51.65
2018-09-23T01:18:35.885Z,51.73
2018-09-23T01:23:39.351Z,52.07
2018-09-23T01:28:42.783Z,51.94
2018-09-23T01:33:46.216Z,52.13
2018-09-23T01:38:49.683Z,52.32
2018-09-23T01:43:53.135Z,52.72
2018-09-23T01:48:56.579Z,52.31
2018-09-23T01:54:00.030Z,52.88
2018-09-23T01:59:03.476Z,52.49
2018-09-23T02:04:06.943Z,52.88
2018-09-23T02:09:10.771Z,52.68
2018-09-23T02:14:14.307Z,53.26
2018-09-23T02:19:17.756Z,53.50
2018-09-23T02:24:21.207Z,53.18
2018-09-23T02:29:24.651Z,53.15
2018-09-23T02:34:28.124Z,53.49
2018-09-23T02:39:31.606Z,53.73
2018-09-23T02:44:35.039Z,53.94
2018-09-23T02:49:38.483Z,53.51
2018-09-23T02:54:42.086Z,54.00
2018-09-23T02:59:45.528Z,54.08
2018-09-23T03:04:48.968Z,53.73
2018-09-23T03:09:52.473Z,53.82
2018-09-23T03:14:55.935Z,53.80
2018-09-23T03:19:59.419Z,53.96
2018-09-23T03:25:02.920Z,54.02
2018-09-23T03:30:07.266Z,54.35
2018-09-23T03:35:10.869Z,54.59
2018-09-23T03:40:14.335Z,54.76
2018-09-23T03:45:17.780Z,54.80
2018-09-23T03:50:21.246Z,54.31
2018-09-23T03:55:24.692Z,54.79
2018-09-23T04:00:28.140Z,54.43
2018-09-23T04:05:31.618Z,54.51
2018-09-23T04:10:35.081Z,54.98
2018-09-23T04:15:38.521Z,54.60
2018-09-23T04:20:41.967Z,54.88
2018-09-23T04:25:45.436Z,55.22
2018-09-23T04:30:48.895Z,55.19
2018-09-23T04:35:52.350Z,55.12
2018-09-23T04:40:55.770Z,55.56
2018-09-23T04:45:59.202Z,55.22
2018-09-23T04:51:02.636Z,55.64
2018-09-23T04:56:06.065Z,55.51
2018-09-23T05:01:09.603Z,55.56
2018-09-23T05:06:13.036Z,56.06
2018-09-23T05:11:16.476Z,55.80
2018-09-23T05:16:20.454Z,56.08
2018-09-23T05:21:23.952Z,55.83
2018-09-23T05:26:27.484Z,56.34
2018-09-23T05:31:30.999Z,56.56
2018-09-23T05:36:34.431Z,56.44
2018-09-23T05:41:37.937Z,56.83
2018-09-23T05:46:41.373Z,56.68
2018-09-23T05:51:44.829Z,56.55
2018-09-23T05:56:48.260Z,56.93
2018-09-23T06:01:51.702Z,56.73
2018-09-23T06:06:55.155Z,56.76
2018-09-23T06:12:01.098Z,56.90
2018-09-23T06:17:04.540Z,57.32
2018-09-23T06:22:07.991Z,57.24
2018-09-23T06:27:11.429Z,57.12
2018-09-23T06:32:14.901Z,57.39
2018-09-23T06:37:18.314Z,57.13
2018-09-23T06:42:21.756Z,57.52
2018-09-23T06:47:25.331Z,57.60
2018-09-23T06:52:28.769Z,57.18
2018-09-23T06:57:33.277Z,57.63
2018-09-23T07:02:37.683Z,57.83
2018-09-23T07:07:41.191Z,52.86
2018-09-23T07:12:45.012Z,54.33
2018-09-23T07:17:48.612Z,53.76
2018-09-23T07:22:52.263Z,52.76
2018-09-23T07:27:55.731Z,52.20
2018-09-23T07:32:59.183Z,52.40
2018-09-23T07:38:02.600Z,52.69
2018-09-23T07:43:06.079Z,53.06
2018-09-23T07:48:09.583Z,53.21
2018-09-23T07:53:13.015Z,52.99
2018-09-23T07:58:16.612Z,52.84
2018-09-23T08:03:20.341Z,52.63
2018-09-23T08:08:23.831Z,52.62
2018-09-23T08:13:27.355Z,52.20
2018-09-23T08:18:30.796Z,52.39
2018-09-23T08:23:34.262Z,51.88
2018-09-23T08:28:38.214Z,52.06
2018-09-23T08:33:41.712Z,51.63
2018-09-23T08:38:45.196Z,51.70
2018-09-23T08:43:48.616Z,51.94
2018-09-23T08:48:52.183Z,51.99
2018-09-23T08:53:55.640Z,52.04
2018-09-23T08:58:59.093Z,52.20
2018-09-23T09:04:02.577Z,52.48
2018-09-23T09:09:07.218Z,52.76
2018-09-23T09:14:10.659Z,52.45
2018-09-23T09:19:14.119Z,52.58
2018-09-23T09:24:17.596Z,52.94
2018-09-23T09:29:21.026Z,52.84
2018-09-23T09:34:24.499Z,53.22
2018-09-23T09:39:27.948Z,54.02
2018-09-23T09:44:31.415Z,53.71
2018-09-23T09:49:34.906Z,53.66
2018-09-23T09:54:38.356Z,54.09
2018-09-23T09:59:41.931Z,54.05
2018-09-23T10:04:45.379Z,54.13
2018-09-23T10:09:48.827Z,54.45
2018-09-23T10:14:52.273Z,54.54
2018-09-23T10:19:55.697Z,54.67
2018-09-23T10:24:59.120Z,54.66
2018-09-23T10:30:02.888Z,54.54
2018-09-23T10:35:07.755Z,54.67
2018-09-23T10:40:11.345Z,56.88
2018-09-23T10:45:14.784Z,58.39
2018-09-23T10:50:18.208Z,58.31
2018-09-23T10:55:21.664Z,56.32
2018-09-23T11:00:25.096Z,58.97
2018-09-23T11:05:28.516Z,56.77
2018-09-23T11:10:31.964Z,55.59
2018-09-23T11:15:35.441Z,56.25
2018-09-23T11:20:38.872Z,55.28
2018-09-23T11:25:42.321Z,56.49
2018-09-23T11:30:45.932Z,54.69
2018-09-23T11:35:50.653Z,55.84
2018-09-23T11:40:54.514Z,55.56
2018-09-23T11:45:57.972Z,56.75
2018-09-23T11:51:01.422Z,55.59
2018-09-23T11:56:04.944Z,55.69
2018-09-23T12:01:08.573Z,55.39
2018-09-23T12:06:12.045Z,55.74
2018-09-23T12:11:16.353Z,55.79
2018-09-23T12:16:19.807Z,55.36
2018-09-23T12:21:23.240Z,55.50
2018-09-23T12:26:26.694Z,55.55
2018-09-23T12:31:30.171Z,55.83
2018-09-23T12:36:33.616Z,55.83
2018-09-23T12:41:37.084Z,56.26
2018-09-23T12:46:40.538Z,56.67
2018-09-23T12:51:44.181Z,56.32
2018-09-23T12:56:47.753Z,56.67
2018-09-23T13:01:51.194Z,56.69
2018-09-23T13:06:54.617Z,56.68
2018-09-23T13:11:58.218Z,56.15
2018-09-23T13:17:01.680Z,56.84
2018-09-23T13:22:06.644Z,57.18
2018-09-23T13:27:10.090Z,59.68
2018-09-23T13:32:13.520Z,60.45
2018-09-23T13:37:16.939Z,59.44
2018-09-23T13:42:20.408Z,57.94
2018-09-23T13:47:23.862Z,57.79
2018-09-23T13:52:27.306Z,57.42
2018-09-23T13:57:30.757Z,57.37
2018-09-23T14:02:34.272Z,57.38
2018-09-23T14:07:37.821Z,57.18
2018-09-23T14:12:41.290Z,57.22
2018-09-23T14:17:44.727Z,58.25
2018-09-23T14:22:48.206Z,57.08
2018-09-23T14:27:51.733Z,57.50
2018-09-23T14:32:55.251Z,57.31
2018-09-23T14:37:58.728Z,57.10
2018-09-23T14:43:02.389Z,57.61
2018-09-23T14:48:05.878Z,57.64
2018-09-23T14:53:09.332Z,57.87
2018-09-23T14:58:12.782Z,58.29
2018-09-23T15:03:16.240Z,57.92
2018-09-23T15:08:19.847Z,57.75
2018-09-23T15:13:23.341Z,58.24
2018-09-23T15:18:26.796Z,57.63
2018-09-23T15:23:30.261Z,57.82
2018-09-23T15:28:33.739Z,58.16
2018-09-23T15:33:37.180Z,58.28
2018-09-23T15:38:40.673Z,58.45
2018-09-23T15:43:44.119Z,58.42
2018-09-23T15:48:47.875Z,58.52
2018-09-23T15:53:51.317Z,58.30
2018-09-23T15:58:54.753Z,58.07
2018-09-23T16:03:58.232Z,58.68
2018-09-23T16:09:01.688Z,58.77
2018-09-23T16:14:05.231Z,58.32
2018-09-23T16:19:08.767Z,58.55
2018-09-23T16:24:12.311Z,58.83
2018-09-23T16:29:15.798Z,58.92
2018-09-23T16:34:19.254Z,58.56
2018-09-23T16:39:22.725Z,59.10
2018-09-23T16:44:26.361Z,59.67
2018-09-23T16:49:29.833Z,59.20
2018-09-23T16:54:33.585Z,59.38
2018-09-23T16:59:37.023Z,58.92
2018-09-23T17:04:40.495Z,59.15
2018-09-23T17:09:44.035Z,58.88
2018-09-23T17:14:48.367Z,58.86
2018-09-23T17:19:52.100Z,58.87
2018-09-23T17:24:56.197Z,58.39
2018-09-23T17:35:15.304Z,58.13
2018-09-23T17:40:19.229Z,57.33
2018-09-23T17:45:23.556Z,57.53
2018-09-23T17:50:27.804Z,57.08
2018-09-23T17:55:31.828Z,56.69
2018-09-23T18:00:35.516Z,56.78
2018-09-23T18:05:39.263Z,56.12
2018-09-23T18:10:42.772Z,56.04
2018-09-23T18:15:52.740Z,55.44
2018-09-23T18:20:56.439Z,55.83
2018-09-23T18:26:00.103Z,55.52
2018-09-23T18:31:03.891Z,55.89
2018-09-23T18:36:08.962Z,54.90
2018-09-23T18:41:12.521Z,54.75
2018-09-23T18:46:16.092Z,54.81
2018-09-23T18:51:19.553Z,54.09
2018-09-23T18:56:23.087Z,53.76
2018-09-23T19:01:26.595Z,53.74
2018-09-23T19:06:30.107Z,53.80
2018-09-23T19:11:33.588Z,54.18
2018-09-23T19:16:37.081Z,53.84
2018-09-23T19:21:40.734Z,54.06
2018-09-23T19:26:44.366Z,53.93
2018-09-23T19:31:48.024Z,54.17
2018-09-23T19:36:51.455Z,54.40
2018-09-23T19:41:54.904Z,54.40
2018-09-23T19:46:58.339Z,54.26
2018-09-23T19:52:01.799Z,53.89
2018-09-23T19:57:05.296Z,54.41
2018-09-23T20:02:08.751Z,54.16
2018-09-23T20:07:12.285Z,53.98
2018-09-23T20:12:15.874Z,54.36
2018-09-23T20:17:19.319Z,54.17
2018-09-23T20:22:22.771Z,53.66
2018-09-23T20:27:26.220Z,53.74
2018-09-23T20:32:29.677Z,54.27
2018-09-23T20:37:33.106Z,54.24
2018-09-23T20:42:36.538Z,54.05
2018-09-23T20:47:39.989Z,54.48
2018-09-23T20:52:43.484Z,54.00
2018-09-23T20:57:46.951Z,54.08
2018-09-23T21:02:50.472Z,54.44
2018-09-23T21:07:53.918Z,54.33
2018-09-23T21:12:57.385Z,53.92
2018-09-23T21:18:00.854Z,53.95
2018-09-23T21:23:04.311Z,54.28
2018-09-23T21:28:07.756Z,54.02
2018-09-23T21:33:11.187Z,53.94
2018-09-23T21:38:14.628Z,54.37
2018-09-23T21:43:18.071Z,54.12
2018-09-23T21:48:21.522Z,54.34
2018-09-23T21:53:24.968Z,54.03
2018-09-23T21:58:28.404Z,54.00
2018-09-23T22:03:31.943Z,54.57
2018-09-23T22:08:35.488Z,54.46
2018-09-23T22:13:38.942Z,54.50
2018-09-23T22:18:42.577Z,54.76
2018-09-23T22:23:46.056Z,54.34
2018-09-23T22:28:49.567Z,54.33
2018-09-23T22:33:53.084Z,54.60
2018-09-23T22:38:56.688Z,54.23
2018-09-23T22:44:00.179Z,54.24
2018-09-23T22:49:03.646Z,54.21
2018-09-23T22:54:07.276Z,54.63
2018-09-23T22:59:10.760Z,54.43
2018-09-23T23:04:14.191Z,54.22
2018-09-23T23:09:17.628Z,54.80
2018-09-23T23:14:21.083Z,54.14
2018-09-23T23:19:24.556Z,54.56
2018-09-23T23:29:37.586Z,54.12
2018-09-23T23:34:41.031Z,54.30
2018-09-23T23:39:44.499Z,53.91
2018-09-23T23:44:47.942Z,54.22
2018-09-23T23:49:51.374Z,54.21
2018-09-23T23:54:54.833Z,54.24
2018-09-23T23:59:58.363Z,53.91
